sensor_id;sensor_type;location;lat;lon;timestamp;P1;durP1;ratioP1;P2;durP2;ratioP2
45232;SDS011;30969;51.052;17.056;2023-06-19T00:04:49;3.30;;;2.58;;
45232;SDS011;30969;51.052;17.056;2023-06-19T00:09:53;3.05;;;2.53;;
45232;SDS011;30969;51.052;17.056;2023-06-19T00:14:57;2.95;;;2.40;;
45232;SDS011;30969;51.052;17.056;2023-06-19T00:20:01;2.92;;;2.08;;
45232;SDS011;30969;51.052;17.056;2023-06-19T00:25:06;3.03;;;2.33;;
45232;SDS011;30969;51.052;17.056;2023-06-19T00:30:11;3.03;;;2.15;;
45232;SDS011;30969;51.052;17.056;2023-06-19T00:35:15;2.35;;;1.88;;
45232;SDS011;30969;51.052;17.056;2023-06-19T00:40:24;2.45;;;2.00;;
45232;SDS011;30969;51.052;17.056;2023-06-19T00:45:31;2.75;;;2.33;;
45232;SDS011;30969;51.052;17.056;2023-06-19T00:50:35;2.85;;;2.30;;
45232;SDS011;30969;51.052;17.056;2023-06-19T00:55:39;2.35;;;2.03;;
45232;SDS011;30969;51.052;17.056;2023-06-19T01:00:46;2.80;;;2.25;;
45232;SDS011;30969;51.052;17.056;2023-06-19T01:06:09;4.25;;;2.90;;
45232;SDS011;30969;51.052;17.056;2023-06-19T01:11:17;3.85;;;2.60;;
45232;SDS011;30969;51.052;17.056;2023-06-19T01:16:30;3.73;;;2.90;;
45232;SDS011;30969;51.052;17.056;2023-06-19T01:21:34;3.35;;;3.05;;
45232;SDS011;30969;51.052;17.056;2023-06-19T01:26:40;2.90;;;2.35;;
45232;SDS011;30969;51.052;17.056;2023-06-19T01:31:49;3.50;;;2.80;;
45232;SDS011;30969;51.052;17.056;2023-06-19T01:36:58;2.88;;;2.40;;
45232;SDS011;30969;51.052;17.056;2023-06-19T01:42:04;3.03;;;2.40;;
45232;SDS011;30969;51.052;17.056;2023-06-19T01:47:09;2.80;;;2.22;;
45232;SDS011;30969;51.052;17.056;2023-06-19T01:52:13;3.03;;;2.50;;
45232;SDS011;30969;51.052;17.056;2023-06-19T01:57:18;3.08;;;2.40;;
45232;SDS011;30969;51.052;17.056;2023-06-19T02:02:22;2.20;;;1.92;;
45232;SDS011;30969;51.052;17.056;2023-06-19T02:07:26;3.22;;;2.30;;
45232;SDS011;30969;51.052;17.056;2023-06-19T02:12:31;3.28;;;2.55;;
45232;SDS011;30969;51.052;17.056;2023-06-19T02:17:34;3.03;;;2.50;;
45232;SDS011;30969;51.052;17.056;2023-06-19T02:22:38;2.85;;;2.38;;
45232;SDS011;30969;51.052;17.056;2023-06-19T02:27:43;2.90;;;2.38;;
45232;SDS011;30969;51.052;17.056;2023-06-19T02:32:47;2.80;;;2.33;;
45232;SDS011;30969;51.052;17.056;2023-06-19T02:37:51;3.00;;;2.60;;
45232;SDS011;30969;51.052;17.056;2023-06-19T02:42:57;3.88;;;2.97;;
45232;SDS011;30969;51.052;17.056;2023-06-19T02:48:00;3.50;;;2.45;;
45232;SDS011;30969;51.052;17.056;2023-06-19T02:53:04;3.63;;;2.63;;
45232;SDS011;30969;51.052;17.056;2023-06-19T02:58:09;3.17;;;2.38;;
45232;SDS011;30969;51.052;17.056;2023-06-19T03:03:12;4.20;;;2.38;;
45232;SDS011;30969;51.052;17.056;2023-06-19T03:08:16;3.08;;;2.42;;
45232;SDS011;30969;51.052;17.056;2023-06-19T03:13:21;3.20;;;2.60;;
45232;SDS011;30969;51.052;17.056;2023-06-19T03:18:25;4.18;;;2.47;;
45232;SDS011;30969;51.052;17.056;2023-06-19T03:23:28;3.10;;;2.58;;
45232;SDS011;30969;51.052;17.056;2023-06-19T03:28:33;3.50;;;2.65;;
45232;SDS011;30969;51.052;17.056;2023-06-19T03:33:37;4.38;;;2.65;;
45232;SDS011;30969;51.052;17.056;2023-06-19T03:38:40;4.35;;;2.50;;
45232;SDS011;30969;51.052;17.056;2023-06-19T03:43:46;3.97;;;2.83;;
45232;SDS011;30969;51.052;17.056;2023-06-19T03:48:49;3.70;;;2.78;;
45232;SDS011;30969;51.052;17.056;2023-06-19T03:53:53;3.90;;;2.83;;
45232;SDS011;30969;51.052;17.056;2023-06-19T03:58:58;4.63;;;3.20;;
45232;SDS011;30969;51.052;17.056;2023-06-19T04:04:01;4.20;;;3.60;;
45232;SDS011;30969;51.052;17.056;2023-06-19T04:09:05;3.50;;;2.67;;
45232;SDS011;30969;51.052;17.056;2023-06-19T04:14:10;3.30;;;2.80;;
45232;SDS011;30969;51.052;17.056;2023-06-19T04:19:13;3.63;;;2.90;;
45232;SDS011;30969;51.052;17.056;2023-06-19T04:24:17;2.60;;;2.20;;
45232;SDS011;30969;51.052;17.056;2023-06-19T04:29:22;4.50;;;3.58;;
45232;SDS011;30969;51.052;17.056;2023-06-19T04:34:25;3.97;;;3.22;;
45232;SDS011;30969;51.052;17.056;2023-06-19T04:39:29;3.65;;;3.03;;
45232;SDS011;30969;51.052;17.056;2023-06-19T04:44:34;3.47;;;2.58;;
45232;SDS011;30969;51.052;17.056;2023-06-19T04:49:37;2.58;;;2.13;;
45232;SDS011;30969;51.052;17.056;2023-06-19T04:54:41;3.25;;;2.40;;
45232;SDS011;30969;51.052;17.056;2023-06-19T04:59:46;3.67;;;2.35;;
45232;SDS011;30969;51.052;17.056;2023-06-19T05:04:50;2.53;;;2.08;;
45232;SDS011;30969;51.052;17.056;2023-06-19T05:09:53;3.35;;;2.67;;
45232;SDS011;30969;51.052;17.056;2023-06-19T05:14:58;2.88;;;2.20;;
45232;SDS011;30969;51.052;17.056;2023-06-19T05:20:02;3.25;;;2.55;;
45232;SDS011;30969;51.052;17.056;2023-06-19T05:25:09;4.35;;;3.33;;
45232;SDS011;30969;51.052;17.056;2023-06-19T05:30:14;2.97;;;2.58;;
45232;SDS011;30969;51.052;17.056;2023-06-19T05:35:17;3.15;;;2.67;;
45232;SDS011;30969;51.052;17.056;2023-06-19T05:40:21;3.28;;;2.28;;
45232;SDS011;30969;51.052;17.056;2023-06-19T05:45:27;4.60;;;2.60;;
45232;SDS011;30969;51.052;17.056;2023-06-19T05:50:30;3.53;;;2.40;;
45232;SDS011;30969;51.052;17.056;2023-06-19T05:55:34;3.25;;;2.40;;
45232;SDS011;30969;51.052;17.056;2023-06-19T06:00:39;2.92;;;2.22;;
45232;SDS011;30969;51.052;17.056;2023-06-19T06:05:42;3.42;;;2.67;;
45232;SDS011;30969;51.052;17.056;2023-06-19T06:10:50;4.57;;;3.72;;
45232;SDS011;30969;51.052;17.056;2023-06-19T06:15:55;4.40;;;3.10;;
45232;SDS011;30969;51.052;17.056;2023-06-19T06:20:58;4.03;;;3.17;;
45232;SDS011;30969;51.052;17.056;2023-06-19T06:26:02;3.60;;;2.83;;
45232;SDS011;30969;51.052;17.056;2023-06-19T06:31:08;3.63;;;2.97;;
45232;SDS011;30969;51.052;17.056;2023-06-19T06:36:14;4.40;;;3.03;;
45232;SDS011;30969;51.052;17.056;2023-06-19T06:41:30;3.35;;;3.00;;
45232;SDS011;30969;51.052;17.056;2023-06-19T06:46:35;3.63;;;2.88;;
45232;SDS011;30969;51.052;17.056;2023-06-19T06:51:39;4.45;;;3.10;;
45232;SDS011;30969;51.052;17.056;2023-06-19T06:56:42;4.32;;;3.38;;
45232;SDS011;30969;51.052;17.056;2023-06-19T07:01:51;6.05;;;3.35;;
45232;SDS011;30969;51.052;17.056;2023-06-19T07:06:55;5.32;;;3.35;;
45232;SDS011;30969;51.052;17.056;2023-06-19T07:12:00;3.45;;;2.83;;
45232;SDS011;30969;51.052;17.056;2023-06-19T07:17:07;3.63;;;2.95;;
45232;SDS011;30969;51.052;17.056;2023-06-19T07:22:11;4.68;;;2.88;;
45232;SDS011;30969;51.052;17.056;2023-06-19T07:27:15;4.15;;;2.75;;
45232;SDS011;30969;51.052;17.056;2023-06-19T07:32:19;3.92;;;2.75;;
45232;SDS011;30969;51.052;17.056;2023-06-19T07:37:23;3.92;;;2.53;;
45232;SDS011;30969;51.052;17.056;2023-06-19T07:42:27;3.15;;;2.72;;
45232;SDS011;30969;51.052;17.056;2023-06-19T07:47:31;4.50;;;2.40;;
45232;SDS011;30969;51.052;17.056;2023-06-19T07:52:35;3.63;;;2.40;;
45232;SDS011;30969;51.052;17.056;2023-06-19T07:57:38;2.90;;;2.38;;
45232;SDS011;30969;51.052;17.056;2023-06-19T08:02:43;2.60;;;2.40;;
45232;SDS011;30969;51.052;17.056;2023-06-19T08:07:47;3.17;;;2.50;;
45232;SDS011;30969;51.052;17.056;2023-06-19T08:12:51;2.60;;;2.40;;
45232;SDS011;30969;51.052;17.056;2023-06-19T08:17:56;2.85;;;2.55;;
45232;SDS011;30969;51.052;17.056;2023-06-19T08:23:00;2.95;;;2.33;;
45232;SDS011;30969;51.052;17.056;2023-06-19T08:28:06;4.03;;;3.03;;
45232;SDS011;30969;51.052;17.056;2023-06-19T08:33:12;3.13;;;2.80;;
45232;SDS011;30969;51.052;17.056;2023-06-19T08:38:16;4.47;;;2.72;;
45232;SDS011;30969;51.052;17.056;2023-06-19T08:43:19;3.63;;;2.72;;
45232;SDS011;30969;51.052;17.056;2023-06-19T08:48:24;2.72;;;2.45;;
45232;SDS011;30969;51.052;17.056;2023-06-19T08:53:28;5.47;;;3.40;;
45232;SDS011;30969;51.052;17.056;2023-06-19T08:58:31;4.10;;;2.92;;
45232;SDS011;30969;51.052;17.056;2023-06-19T09:03:36;4.50;;;2.90;;
45232;SDS011;30969;51.052;17.056;2023-06-19T09:08:40;2.78;;;2.42;;
45232;SDS011;30969;51.052;17.056;2023-06-19T09:13:43;3.08;;;2.78;;
45232;SDS011;30969;51.052;17.056;2023-06-19T09:18:49;4.93;;;3.10;;
45232;SDS011;30969;51.052;17.056;2023-06-19T09:23:53;3.33;;;2.90;;
45232;SDS011;30969;51.052;17.056;2023-06-19T09:28:57;3.22;;;2.83;;
45232;SDS011;30969;51.052;17.056;2023-06-19T09:34:03;3.55;;;2.85;;
45232;SDS011;30969;51.052;17.056;2023-06-19T09:39:15;3.58;;;2.53;;
45232;SDS011;30969;51.052;17.056;2023-06-19T09:44:21;4.03;;;2.60;;
45232;SDS011;30969;51.052;17.056;2023-06-19T09:49:28;5.10;;;2.72;;
45232;SDS011;30969;51.052;17.056;2023-06-19T09:54:36;2.85;;;2.53;;
45232;SDS011;30969;51.052;17.056;2023-06-19T09:59:42;3.50;;;2.80;;
45232;SDS011;30969;51.052;17.056;2023-06-19T10:04:49;3.13;;;2.80;;
45232;SDS011;30969;51.052;17.056;2023-06-19T10:09:54;2.80;;;2.50;;
45232;SDS011;30969;51.052;17.056;2023-06-19T10:15:12;3.08;;;2.60;;
45232;SDS011;30969;51.052;17.056;2023-06-19T10:20:23;2.70;;;2.40;;
45232;SDS011;30969;51.052;17.056;2023-06-19T10:25:30;2.50;;;2.20;;
45232;SDS011;30969;51.052;17.056;2023-06-19T10:30:35;2.78;;;2.45;;
45232;SDS011;30969;51.052;17.056;2023-06-19T10:35:40;2.58;;;2.38;;
45232;SDS011;30969;51.052;17.056;2023-06-19T10:40:44;3.25;;;2.40;;
45232;SDS011;30969;51.052;17.056;2023-06-19T10:45:48;2.78;;;2.47;;
45232;SDS011;30969;51.052;17.056;2023-06-19T10:50:55;2.63;;;2.30;;
45232;SDS011;30969;51.052;17.056;2023-06-19T10:56:00;2.58;;;2.33;;
45232;SDS011;30969;51.052;17.056;2023-06-19T11:01:04;4.65;;;2.38;;
45232;SDS011;30969;51.052;17.056;2023-06-19T11:06:10;2.67;;;2.40;;
45232;SDS011;30969;51.052;17.056;2023-06-19T11:11:14;2.50;;;2.13;;
45232;SDS011;30969;51.052;17.056;2023-06-19T11:16:18;2.85;;;2.10;;
45232;SDS011;30969;51.052;17.056;2023-06-19T11:21:30;3.05;;;2.10;;
45232;SDS011;30969;51.052;17.056;2023-06-19T11:26:35;2.75;;;2.15;;
45232;SDS011;30969;51.052;17.056;2023-06-19T11:31:41;4.18;;;2.40;;
45232;SDS011;30969;51.052;17.056;2023-06-19T11:36:46;2.55;;;2.03;;
45232;SDS011;30969;51.052;17.056;2023-06-19T11:41:52;3.40;;;2.40;;
45232;SDS011;30969;51.052;17.056;2023-06-19T11:46:57;2.63;;;2.35;;
45232;SDS011;30969;51.052;17.056;2023-06-19T11:52:03;2.70;;;2.35;;
45232;SDS011;30969;51.052;17.056;2023-06-19T11:57:08;2.90;;;2.03;;
45232;SDS011;30969;51.052;17.056;2023-06-19T12:02:13;2.60;;;2.13;;
45232;SDS011;30969;51.052;17.056;2023-06-19T12:07:18;2.92;;;2.20;;
45232;SDS011;30969;51.052;17.056;2023-06-19T12:12:22;2.92;;;2.42;;
45232;SDS011;30969;51.052;17.056;2023-06-19T12:17:28;4.03;;;2.53;;
45232;SDS011;30969;51.052;17.056;2023-06-19T12:22:33;5.22;;;2.70;;
45232;SDS011;30969;51.052;17.056;2023-06-19T12:27:37;3.60;;;3.03;;
45232;SDS011;30969;51.052;17.056;2023-06-19T12:32:41;6.35;;;3.10;;
45232;SDS011;30969;51.052;17.056;2023-06-19T12:37:46;4.22;;;2.78;;
45232;SDS011;30969;51.052;17.056;2023-06-19T12:42:50;3.88;;;3.40;;
45232;SDS011;30969;51.052;17.056;2023-06-19T12:47:54;4.60;;;3.00;;
45232;SDS011;30969;51.052;17.056;2023-06-19T12:52:59;4.53;;;3.60;;
45232;SDS011;30969;51.052;17.056;2023-06-19T12:58:02;4.00;;;3.25;;
45232;SDS011;30969;51.052;17.056;2023-06-19T13:03:09;3.95;;;3.35;;
45232;SDS011;30969;51.052;17.056;2023-06-19T13:08:14;4.38;;;3.45;;
45232;SDS011;30969;51.052;17.056;2023-06-19T13:13:18;4.97;;;3.60;;
45232;SDS011;30969;51.052;17.056;2023-06-19T13:18:22;3.53;;;2.88;;
45232;SDS011;30969;51.052;17.056;2023-06-19T13:23:27;3.38;;;3.08;;
45232;SDS011;30969;51.052;17.056;2023-06-19T13:28:33;3.92;;;3.05;;
45232;SDS011;30969;51.052;17.056;2023-06-19T13:33:37;5.03;;;3.40;;
45232;SDS011;30969;51.052;17.056;2023-06-19T13:38:42;3.83;;;3.35;;
45232;SDS011;30969;51.052;17.056;2023-06-19T13:43:46;3.47;;;2.85;;
45232;SDS011;30969;51.052;17.056;2023-06-19T13:48:50;3.72;;;3.08;;
45232;SDS011;30969;51.052;17.056;2023-06-19T13:53:57;3.13;;;2.83;;
45232;SDS011;30969;51.052;17.056;2023-06-19T13:59:01;3.45;;;3.15;;
45232;SDS011;30969;51.052;17.056;2023-06-19T14:04:04;3.85;;;3.17;;
45232;SDS011;30969;51.052;17.056;2023-06-19T14:09:09;3.53;;;3.10;;
45232;SDS011;30969;51.052;17.056;2023-06-19T14:14:13;3.35;;;3.05;;
45232;SDS011;30969;51.052;17.056;2023-06-19T14:19:17;3.30;;;3.00;;
45232;SDS011;30969;51.052;17.056;2023-06-19T14:24:22;4.80;;;3.47;;
45232;SDS011;30969;51.052;17.056;2023-06-19T14:29:26;3.88;;;3.40;;
45232;SDS011;30969;51.052;17.056;2023-06-19T14:34:29;3.63;;;3.20;;
45232;SDS011;30969;51.052;17.056;2023-06-19T14:39:34;4.00;;;3.22;;
45232;SDS011;30969;51.052;17.056;2023-06-19T14:44:38;3.50;;;3.08;;
45232;SDS011;30969;51.052;17.056;2023-06-19T14:49:41;5.50;;;2.88;;
45232;SDS011;30969;51.052;17.056;2023-06-19T14:54:46;3.30;;;3.00;;
45232;SDS011;30969;51.052;17.056;2023-06-19T14:59:50;5.32;;;3.47;;
45232;SDS011;30969;51.052;17.056;2023-06-19T15:04:53;3.55;;;3.13;;
45232;SDS011;30969;51.052;17.056;2023-06-19T15:10:09;3.28;;;2.90;;
45232;SDS011;30969;51.052;17.056;2023-06-19T15:15:13;3.55;;;3.15;;
45232;SDS011;30969;51.052;17.056;2023-06-19T15:20:17;5.93;;;3.00;;
45232;SDS011;30969;51.052;17.056;2023-06-19T15:25:23;5.78;;;3.38;;
45232;SDS011;30969;51.052;17.056;2023-06-19T15:30:27;3.42;;;3.10;;
45232;SDS011;30969;51.052;17.056;2023-06-19T15:35:31;3.72;;;3.08;;
45232;SDS011;30969;51.052;17.056;2023-06-19T15:40:37;4.15;;;3.20;;
45232;SDS011;30969;51.052;17.056;2023-06-19T15:45:42;4.00;;;2.78;;
45232;SDS011;30969;51.052;17.056;2023-06-19T15:50:47;3.65;;;3.00;;
45232;SDS011;30969;51.052;17.056;2023-06-19T15:55:52;3.75;;;2.92;;
45232;SDS011;30969;51.052;17.056;2023-06-19T16:00:56;3.28;;;2.90;;
45232;SDS011;30969;51.052;17.056;2023-06-19T16:06:00;4.40;;;2.85;;
45232;SDS011;30969;51.052;17.056;2023-06-19T16:11:11;4.00;;;3.40;;
45232;SDS011;30969;51.052;17.056;2023-06-19T16:16:14;4.20;;;3.28;;
45232;SDS011;30969;51.052;17.056;2023-06-19T16:21:18;3.42;;;3.13;;
45232;SDS011;30969;51.052;17.056;2023-06-19T16:26:23;3.70;;;3.30;;
45232;SDS011;30969;51.052;17.056;2023-06-19T16:31:26;4.05;;;3.05;;
45232;SDS011;30969;51.052;17.056;2023-06-19T16:36:30;3.42;;;3.05;;
45232;SDS011;30969;51.052;17.056;2023-06-19T16:41:35;3.15;;;2.65;;
45232;SDS011;30969;51.052;17.056;2023-06-19T16:46:38;3.95;;;3.30;;
45232;SDS011;30969;51.052;17.056;2023-06-19T16:51:42;4.18;;;3.53;;
45232;SDS011;30969;51.052;17.056;2023-06-19T16:56:48;3.72;;;2.70;;
45232;SDS011;30969;51.052;17.056;2023-06-19T17:01:51;3.50;;;2.53;;
45232;SDS011;30969;51.052;17.056;2023-06-19T17:06:55;5.40;;;2.47;;
45232;SDS011;30969;51.052;17.056;2023-06-19T17:11:59;3.92;;;2.17;;
45232;SDS011;30969;51.052;17.056;2023-06-19T17:17:03;2.90;;;2.40;;
45232;SDS011;30969;51.052;17.056;2023-06-19T17:22:08;3.13;;;2.40;;
45232;SDS011;30969;51.052;17.056;2023-06-19T17:27:13;4.20;;;2.85;;
45232;SDS011;30969;51.052;17.056;2023-06-19T17:32:16;4.15;;;2.83;;
45232;SDS011;30969;51.052;17.056;2023-06-19T17:37:20;4.00;;;2.97;;
45232;SDS011;30969;51.052;17.056;2023-06-19T17:42:25;3.53;;;2.95;;
45232;SDS011;30969;51.052;17.056;2023-06-19T17:47:28;4.32;;;3.17;;
45232;SDS011;30969;51.052;17.056;2023-06-19T17:52:34;5.32;;;3.00;;
45232;SDS011;30969;51.052;17.056;2023-06-19T17:57:42;3.70;;;3.22;;
45232;SDS011;30969;51.052;17.056;2023-06-19T18:02:46;3.67;;;2.80;;
45232;SDS011;30969;51.052;17.056;2023-06-19T18:07:50;3.70;;;3.15;;
45232;SDS011;30969;51.052;17.056;2023-06-19T18:12:55;4.10;;;3.45;;
45232;SDS011;30969;51.052;17.056;2023-06-19T18:18:00;5.43;;;3.50;;
45232;SDS011;30969;51.052;17.056;2023-06-19T18:23:05;4.28;;;2.88;;
45232;SDS011;30969;51.052;17.056;2023-06-19T18:28:14;3.80;;;2.92;;
45232;SDS011;30969;51.052;17.056;2023-06-19T18:33:18;3.72;;;2.80;;
45232;SDS011;30969;51.052;17.056;2023-06-19T18:38:23;4.78;;;2.95;;
45232;SDS011;30969;51.052;17.056;2023-06-19T18:43:31;6.22;;;3.42;;
45232;SDS011;30969;51.052;17.056;2023-06-19T18:48:36;4.90;;;4.05;;
45232;SDS011;30969;51.052;17.056;2023-06-19T18:53:40;4.70;;;4.15;;
45232;SDS011;30969;51.052;17.056;2023-06-19T18:58:46;4.75;;;3.88;;
45232;SDS011;30969;51.052;17.056;2023-06-19T19:03:49;4.65;;;3.78;;
45232;SDS011;30969;51.052;17.056;2023-06-19T19:08:53;4.28;;;3.40;;
45232;SDS011;30969;51.052;17.056;2023-06-19T19:14:00;4.35;;;3.28;;
45232;SDS011;30969;51.052;17.056;2023-06-19T19:19:04;3.55;;;2.72;;
45232;SDS011;30969;51.052;17.056;2023-06-19T19:24:08;3.55;;;2.85;;
45232;SDS011;30969;51.052;17.056;2023-06-19T19:29:13;3.17;;;2.65;;
45232;SDS011;30969;51.052;17.056;2023-06-19T19:34:32;4.03;;;2.67;;
45232;SDS011;30969;51.052;17.056;2023-06-19T19:39:38;4.78;;;3.30;;
45232;SDS011;30969;51.052;17.056;2023-06-19T19:44:43;5.03;;;3.20;;
45232;SDS011;30969;51.052;17.056;2023-06-19T19:49:47;4.03;;;3.20;;
45232;SDS011;30969;51.052;17.056;2023-06-19T19:54:52;3.20;;;2.67;;
45232;SDS011;30969;51.052;17.056;2023-06-19T19:59:57;3.58;;;2.80;;
45232;SDS011;30969;51.052;17.056;2023-06-19T20:05:03;3.78;;;2.97;;
45232;SDS011;30969;51.052;17.056;2023-06-19T20:10:32;3.45;;;3.15;;
45232;SDS011;30969;51.052;17.056;2023-06-19T20:15:40;4.32;;;3.60;;
45232;SDS011;30969;51.052;17.056;2023-06-19T20:20:44;3.83;;;3.38;;
45232;SDS011;30969;51.052;17.056;2023-06-19T20:25:47;4.15;;;3.40;;
45232;SDS011;30969;51.052;17.056;2023-06-19T20:30:53;3.97;;;3.10;;
45232;SDS011;30969;51.052;17.056;2023-06-19T20:35:57;4.40;;;3.30;;
45232;SDS011;30969;51.052;17.056;2023-06-19T20:41:03;3.45;;;3.05;;
45232;SDS011;30969;51.052;17.056;2023-06-19T20:46:11;6.07;;;3.78;;
45232;SDS011;30969;51.052;17.056;2023-06-19T20:51:18;3.53;;;2.97;;
45232;SDS011;30969;51.052;17.056;2023-06-19T20:56:31;5.57;;;3.65;;
45232;SDS011;30969;51.052;17.056;2023-06-19T21:01:36;3.60;;;3.03;;
45232;SDS011;30969;51.052;17.056;2023-06-19T21:06:40;4.38;;;3.53;;
45232;SDS011;30969;51.052;17.056;2023-06-19T21:11:44;5.28;;;3.58;;
45232;SDS011;30969;51.052;17.056;2023-06-19T21:16:49;3.85;;;3.28;;
45232;SDS011;30969;51.052;17.056;2023-06-19T21:21:52;4.18;;;2.90;;
45232;SDS011;30969;51.052;17.056;2023-06-19T21:26:56;4.18;;;3.35;;
45232;SDS011;30969;51.052;17.056;2023-06-19T21:32:02;4.07;;;3.10;;
45232;SDS011;30969;51.052;17.056;2023-06-19T21:37:07;3.38;;;2.70;;
45232;SDS011;30969;51.052;17.056;2023-06-19T21:42:10;3.85;;;3.22;;
45232;SDS011;30969;51.052;17.056;2023-06-19T21:47:16;5.10;;;3.63;;
45232;SDS011;30969;51.052;17.056;2023-06-19T21:52:20;6.25;;;3.70;;
45232;SDS011;30969;51.052;17.056;2023-06-19T21:57:23;4.28;;;3.70;;
45232;SDS011;30969;51.052;17.056;2023-06-19T22:02:29;4.95;;;3.65;;
45232;SDS011;30969;51.052;17.056;2023-06-19T22:07:33;4.60;;;3.28;;
45232;SDS011;30969;51.052;17.056;2023-06-19T22:12:37;4.80;;;4.18;;
45232;SDS011;30969;51.052;17.056;2023-06-19T22:17:44;4.97;;;3.97;;
45232;SDS011;30969;51.052;17.056;2023-06-19T22:22:47;4.55;;;3.22;;
45232;SDS011;30969;51.052;17.056;2023-06-19T22:27:51;4.35;;;3.60;;
45232;SDS011;30969;51.052;17.056;2023-06-19T22:32:57;4.28;;;3.28;;
45232;SDS011;30969;51.052;17.056;2023-06-19T22:38:05;3.60;;;2.80;;
45232;SDS011;30969;51.052;17.056;2023-06-19T22:43:09;3.25;;;2.55;;
45232;SDS011;30969;51.052;17.056;2023-06-19T22:48:14;3.75;;;3.22;;
45232;SDS011;30969;51.052;17.056;2023-06-19T22:53:20;4.50;;;3.35;;
45232;SDS011;30969;51.052;17.056;2023-06-19T22:58:23;3.78;;;3.05;;
45232;SDS011;30969;51.052;17.056;2023-06-19T23:03:29;4.40;;;3.17;;
45232;SDS011;30969;51.052;17.056;2023-06-19T23:08:33;3.83;;;3.38;;
45232;SDS011;30969;51.052;17.056;2023-06-19T23:13:39;4.32;;;3.10;;
45232;SDS011;30969;51.052;17.056;2023-06-19T23:18:44;3.92;;;3.15;;
45232;SDS011;30969;51.052;17.056;2023-06-19T23:23:47;2.92;;;2.60;;
45232;SDS011;30969;51.052;17.056;2023-06-19T23:28:51;4.10;;;3.40;;
45232;SDS011;30969;51.052;17.056;2023-06-19T23:33:57;4.72;;;3.13;;
45232;SDS011;30969;51.052;17.056;2023-06-19T23:39:01;3.47;;;2.97;;
45232;SDS011;30969;51.052;17.056;2023-06-19T23:44:05;3.80;;;2.80;;
45232;SDS011;30969;51.052;17.056;2023-06-19T23:49:11;5.40;;;3.33;;
45232;SDS011;30969;51.052;17.056;2023-06-19T23:54:14;3.78;;;3.17;;
45232;SDS011;30969;51.052;17.056;2023-06-19T23:59:18;3.95;;;3.38;;
